sensor_id;sensor_type;location;lat;lon;timestamp;P1;durP1;ratioP1;P2;durP2;ratioP2
18973;SDS011;9621;48.690;9.466;2022-12-29T00:00:14;10.07;;;6.53;;
18973;SDS011;9621;48.690;9.466;2022-12-29T00:02:41;10.27;;;6.83;;
18973;SDS011;9621;48.690;9.466;2022-12-29T00:05:09;10.80;;;7.60;;
18973;SDS011;9621;48.690;9.466;2022-12-29T00:07:41;10.40;;;6.20;;
18973;SDS011;9621;48.690;9.466;2022-12-29T00:10:08;10.90;;;7.33;;
18973;SDS011;9621;48.690;9.466;2022-12-29T00:12:37;11.10;;;6.40;;
18973;SDS011;9621;48.690;9.466;2022-12-29T00:15:22;13.50;;;6.57;;
18973;SDS011;9621;48.690;9.466;2022-12-29T00:18:04;9.60;;;5.97;;
18973;SDS011;9621;48.690;9.466;2022-12-29T00:20:36;8.37;;;5.97;;
18973;SDS011;9621;48.690;9.466;2022-12-29T00:23:26;7.97;;;5.67;;
18973;SDS011;9621;48.690;9.466;2022-12-29T00:26:12;10.03;;;6.07;;
18973;SDS011;9621;48.690;9.466;2022-12-29T00:29:00;8.13;;;5.73;;
18973;SDS011;9621;48.690;9.466;2022-12-29T00:31:47;10.27;;;6.70;;
18973;SDS011;9621;48.690;9.466;2022-12-29T00:34:32;7.40;;;5.63;;
18973;SDS011;9621;48.690;9.466;2022-12-29T00:37:16;8.13;;;6.00;;
18973;SDS011;9621;48.690;9.466;2022-12-29T00:40:06;8.40;;;5.27;;
18973;SDS011;9621;48.690;9.466;2022-12-29T00:42:51;8.77;;;5.70;;
18973;SDS011;9621;48.690;9.466;2022-12-29T00:45:32;8.77;;;5.57;;
18973;SDS011;9621;48.690;9.466;2022-12-29T00:47:59;10.07;;;5.97;;
18973;SDS011;9621;48.690;9.466;2022-12-29T00:50:26;10.33;;;5.67;;
18973;SDS011;9621;48.690;9.466;2022-12-29T00:52:52;10.03;;;5.90;;
18973;SDS011;9621;48.690;9.466;2022-12-29T00:55:24;8.73;;;5.63;;
18973;SDS011;9621;48.690;9.466;2022-12-29T00:57:51;7.80;;;5.63;;
18973;SDS011;9621;48.690;9.466;2022-12-29T01:00:18;8.10;;;5.47;;
18973;SDS011;9621;48.690;9.466;2022-12-29T01:02:45;7.60;;;4.93;;
18973;SDS011;9621;48.690;9.466;2022-12-29T01:05:15;9.63;;;7.07;;
18973;SDS011;9621;48.690;9.466;2022-12-29T01:07:42;8.17;;;4.80;;
18973;SDS011;9621;48.690;9.466;2022-12-29T01:10:10;7.53;;;5.47;;
18973;SDS011;9621;48.690;9.466;2022-12-29T01:12:37;9.93;;;5.30;;
18973;SDS011;9621;48.690;9.466;2022-12-29T01:15:10;8.10;;;4.97;;
18973;SDS011;9621;48.690;9.466;2022-12-29T01:17:38;6.60;;;4.80;;
18973;SDS011;9621;48.690;9.466;2022-12-29T01:20:06;7.63;;;5.30;;
18973;SDS011;9621;48.690;9.466;2022-12-29T01:22:35;8.00;;;5.30;;
18973;SDS011;9621;48.690;9.466;2022-12-29T01:25:03;8.33;;;5.73;;
18973;SDS011;9621;48.690;9.466;2022-12-29T01:27:30;10.00;;;6.07;;
18973;SDS011;9621;48.690;9.466;2022-12-29T01:29:59;7.80;;;5.00;;
18973;SDS011;9621;48.690;9.466;2022-12-29T01:32:26;8.57;;;5.33;;
18973;SDS011;9621;48.690;9.466;2022-12-29T01:34:53;8.73;;;5.10;;
18973;SDS011;9621;48.690;9.466;2022-12-29T01:37:19;7.63;;;5.37;;
18973;SDS011;9621;48.690;9.466;2022-12-29T01:39:47;7.13;;;5.80;;
18973;SDS011;9621;48.690;9.466;2022-12-29T01:42:14;7.33;;;5.47;;
18973;SDS011;9621;48.690;9.466;2022-12-29T01:44:52;10.43;;;6.80;;
18973;SDS011;9621;48.690;9.466;2022-12-29T01:47:33;7.83;;;5.40;;
18973;SDS011;9621;48.690;9.466;2022-12-29T01:50:06;8.40;;;5.43;;
18973;SDS011;9621;48.690;9.466;2022-12-29T01:52:41;7.13;;;5.27;;
18973;SDS011;9621;48.690;9.466;2022-12-29T01:55:15;9.67;;;5.90;;
18973;SDS011;9621;48.690;9.466;2022-12-29T01:57:44;7.93;;;4.87;;
18973;SDS011;9621;48.690;9.466;2022-12-29T02:00:19;11.33;;;5.77;;
18973;SDS011;9621;48.690;9.466;2022-12-29T02:02:49;8.07;;;5.50;;
18973;SDS011;9621;48.690;9.466;2022-12-29T02:05:20;9.60;;;5.03;;
18973;SDS011;9621;48.690;9.466;2022-12-29T02:07:54;7.50;;;5.17;;
18973;SDS011;9621;48.690;9.466;2022-12-29T02:10:22;7.47;;;5.03;;
18973;SDS011;9621;48.690;9.466;2022-12-29T02:12:51;6.13;;;5.07;;
18973;SDS011;9621;48.690;9.466;2022-12-29T02:15:19;6.90;;;5.10;;
18973;SDS011;9621;48.690;9.466;2022-12-29T02:17:58;8.30;;;5.50;;
18973;SDS011;9621;48.690;9.466;2022-12-29T02:20:44;9.77;;;5.20;;
18973;SDS011;9621;48.690;9.466;2022-12-29T02:23:50;7.00;;;5.20;;
18973;SDS011;9621;48.690;9.466;2022-12-29T02:26:38;7.80;;;4.93;;
18973;SDS011;9621;48.690;9.466;2022-12-29T02:32:30;8.50;;;5.10;;
18973;SDS011;9621;48.690;9.466;2022-12-29T02:35:05;7.33;;;4.97;;
18973;SDS011;9621;48.690;9.466;2022-12-29T02:37:40;9.50;;;5.47;;
18973;SDS011;9621;48.690;9.466;2022-12-29T02:40:16;6.57;;;4.57;;
18973;SDS011;9621;48.690;9.466;2022-12-29T02:42:49;7.27;;;5.40;;
18973;SDS011;9621;48.690;9.466;2022-12-29T02:45:25;10.87;;;5.97;;
18973;SDS011;9621;48.690;9.466;2022-12-29T02:48:00;8.03;;;4.97;;
18973;SDS011;9621;48.690;9.466;2022-12-29T02:50:35;7.40;;;5.07;;
18973;SDS011;9621;48.690;9.466;2022-12-29T02:53:05;7.60;;;5.00;;
18973;SDS011;9621;48.690;9.466;2022-12-29T02:55:34;7.60;;;4.87;;
18973;SDS011;9621;48.690;9.466;2022-12-29T02:58:15;8.87;;;5.37;;
18973;SDS011;9621;48.690;9.466;2022-12-29T03:00:47;7.37;;;4.93;;
18973;SDS011;9621;48.690;9.466;2022-12-29T03:03:25;8.87;;;4.83;;
18973;SDS011;9621;48.690;9.466;2022-12-29T03:06:08;7.47;;;5.10;;
18973;SDS011;9621;48.690;9.466;2022-12-29T03:08:44;7.13;;;4.70;;
18973;SDS011;9621;48.690;9.466;2022-12-29T03:11:16;7.67;;;5.23;;
18973;SDS011;9621;48.690;9.466;2022-12-29T03:14:02;8.93;;;5.30;;
18973;SDS011;9621;48.690;9.466;2022-12-29T03:16:52;8.83;;;5.20;;
18973;SDS011;9621;48.690;9.466;2022-12-29T03:19:28;7.57;;;5.20;;
18973;SDS011;9621;48.690;9.466;2022-12-29T03:22:00;6.67;;;4.70;;
18973;SDS011;9621;48.690;9.466;2022-12-29T03:24:47;6.77;;;4.50;;
18973;SDS011;9621;48.690;9.466;2022-12-29T03:27:19;8.27;;;4.50;;
18973;SDS011;9621;48.690;9.466;2022-12-29T03:29:50;8.07;;;5.00;;
18973;SDS011;9621;48.690;9.466;2022-12-29T03:32:20;9.43;;;4.80;;
18973;SDS011;9621;48.690;9.466;2022-12-29T03:34:52;9.03;;;3.87;;
18973;SDS011;9621;48.690;9.466;2022-12-29T03:37:25;7.33;;;4.10;;
18973;SDS011;9621;48.690;9.466;2022-12-29T03:39:56;6.17;;;4.17;;
18973;SDS011;9621;48.690;9.466;2022-12-29T03:42:25;6.47;;;4.10;;
18973;SDS011;9621;48.690;9.466;2022-12-29T03:44:55;6.37;;;3.37;;
18973;SDS011;9621;48.690;9.466;2022-12-29T03:47:26;5.23;;;3.63;;
18973;SDS011;9621;48.690;9.466;2022-12-29T03:49:55;5.37;;;3.83;;
18973;SDS011;9621;48.690;9.466;2022-12-29T03:52:22;4.90;;;3.60;;
18973;SDS011;9621;48.690;9.466;2022-12-29T03:54:52;4.60;;;3.00;;
18973;SDS011;9621;48.690;9.466;2022-12-29T03:57:19;5.57;;;3.10;;
18973;SDS011;9621;48.690;9.466;2022-12-29T03:59:49;7.03;;;2.80;;
18973;SDS011;9621;48.690;9.466;2022-12-29T04:02:16;4.37;;;2.73;;
18973;SDS011;9621;48.690;9.466;2022-12-29T04:04:43;7.37;;;2.70;;
18973;SDS011;9621;48.690;9.466;2022-12-29T04:07:11;3.70;;;2.10;;
18973;SDS011;9621;48.690;9.466;2022-12-29T04:09:38;4.90;;;1.47;;
18973;SDS011;9621;48.690;9.466;2022-12-29T04:12:05;2.90;;;1.20;;
18973;SDS011;9621;48.690;9.466;2022-12-29T04:14:32;2.27;;;1.73;;
18973;SDS011;9621;48.690;9.466;2022-12-29T04:16:59;3.23;;;1.10;;
18973;SDS011;9621;48.690;9.466;2022-12-29T04:19:26;1.97;;;1.10;;
18973;SDS011;9621;48.690;9.466;2022-12-29T04:21:53;2.03;;;1.10;;
18973;SDS011;9621;48.690;9.466;2022-12-29T04:24:21;2.00;;;1.20;;
18973;SDS011;9621;48.690;9.466;2022-12-29T04:26:48;1.40;;;0.90;;
18973;SDS011;9621;48.690;9.466;2022-12-29T04:29:16;1.37;;;0.90;;
18973;SDS011;9621;48.690;9.466;2022-12-29T04:31:43;1.73;;;0.80;;
18973;SDS011;9621;48.690;9.466;2022-12-29T04:34:10;1.00;;;0.90;;
18973;SDS011;9621;48.690;9.466;2022-12-29T04:36:37;1.47;;;0.80;;
18973;SDS011;9621;48.690;9.466;2022-12-29T04:39:04;1.23;;;0.80;;
18973;SDS011;9621;48.690;9.466;2022-12-29T04:41:33;1.97;;;0.90;;
18973;SDS011;9621;48.690;9.466;2022-12-29T04:44:00;4.00;;;1.10;;
18973;SDS011;9621;48.690;9.466;2022-12-29T04:46:27;2.20;;;1.00;;
18973;SDS011;9621;48.690;9.466;2022-12-29T04:48:54;2.10;;;1.03;;
18973;SDS011;9621;48.690;9.466;2022-12-29T04:51:21;2.27;;;1.00;;
18973;SDS011;9621;48.690;9.466;2022-12-29T04:53:48;2.80;;;0.90;;
18973;SDS011;9621;48.690;9.466;2022-12-29T04:56:15;3.17;;;0.90;;
18973;SDS011;9621;48.690;9.466;2022-12-29T04:58:43;1.63;;;0.80;;
18973;SDS011;9621;48.690;9.466;2022-12-29T05:01:10;2.23;;;0.90;;
18973;SDS011;9621;48.690;9.466;2022-12-29T05:03:38;2.40;;;1.10;;
18973;SDS011;9621;48.690;9.466;2022-12-29T05:06:05;5.77;;;2.00;;
18973;SDS011;9621;48.690;9.466;2022-12-29T05:08:33;3.47;;;1.60;;
18973;SDS011;9621;48.690;9.466;2022-12-29T05:11:00;3.30;;;1.90;;
18973;SDS011;9621;48.690;9.466;2022-12-29T05:13:27;3.10;;;1.40;;
18973;SDS011;9621;48.690;9.466;2022-12-29T05:15:55;4.63;;;1.20;;
18973;SDS011;9621;48.690;9.466;2022-12-29T05:18:22;3.00;;;1.13;;
18973;SDS011;9621;48.690;9.466;2022-12-29T05:20:49;1.73;;;1.03;;
18973;SDS011;9621;48.690;9.466;2022-12-29T05:23:16;2.10;;;0.93;;
18973;SDS011;9621;48.690;9.466;2022-12-29T05:25:43;2.27;;;1.10;;
18973;SDS011;9621;48.690;9.466;2022-12-29T05:28:11;3.10;;;1.20;;
18973;SDS011;9621;48.690;9.466;2022-12-29T05:30:38;2.70;;;0.93;;
18973;SDS011;9621;48.690;9.466;2022-12-29T05:33:07;2.73;;;1.20;;
18973;SDS011;9621;48.690;9.466;2022-12-29T05:35:36;2.53;;;1.00;;
18973;SDS011;9621;48.690;9.466;2022-12-29T05:38:03;5.30;;;1.00;;
18973;SDS011;9621;48.690;9.466;2022-12-29T05:40:30;2.37;;;1.20;;
18973;SDS011;9621;48.690;9.466;2022-12-29T05:42:57;2.70;;;1.10;;
18973;SDS011;9621;48.690;9.466;2022-12-29T05:45:24;2.50;;;1.53;;
18973;SDS011;9621;48.690;9.466;2022-12-29T05:47:51;2.73;;;1.07;;
18973;SDS011;9621;48.690;9.466;2022-12-29T05:50:20;2.53;;;1.03;;
18973;SDS011;9621;48.690;9.466;2022-12-29T05:52:46;2.07;;;1.17;;
18973;SDS011;9621;48.690;9.466;2022-12-29T05:55:14;4.37;;;1.30;;
18973;SDS011;9621;48.690;9.466;2022-12-29T05:57:40;5.43;;;1.50;;
18973;SDS011;9621;48.690;9.466;2022-12-29T06:00:08;2.50;;;1.10;;
18973;SDS011;9621;48.690;9.466;2022-12-29T06:02:35;2.27;;;1.10;;
18973;SDS011;9621;48.690;9.466;2022-12-29T06:05:02;2.27;;;0.80;;
18973;SDS011;9621;48.690;9.466;2022-12-29T06:07:31;2.83;;;1.00;;
18973;SDS011;9621;48.690;9.466;2022-12-29T06:09:58;1.90;;;1.40;;
18973;SDS011;9621;48.690;9.466;2022-12-29T06:12:25;3.70;;;1.07;;
18973;SDS011;9621;48.690;9.466;2022-12-29T06:14:52;1.93;;;0.90;;
18973;SDS011;9621;48.690;9.466;2022-12-29T06:17:19;3.87;;;1.20;;
18973;SDS011;9621;48.690;9.466;2022-12-29T06:19:46;3.60;;;1.90;;
18973;SDS011;9621;48.690;9.466;2022-12-29T06:22:13;2.47;;;1.10;;
18973;SDS011;9621;48.690;9.466;2022-12-29T06:24:41;2.13;;;1.10;;
18973;SDS011;9621;48.690;9.466;2022-12-29T06:27:09;1.83;;;1.00;;
18973;SDS011;9621;48.690;9.466;2022-12-29T06:29:36;2.77;;;1.40;;
18973;SDS011;9621;48.690;9.466;2022-12-29T06:32:05;4.00;;;1.60;;
18973;SDS011;9621;48.690;9.466;2022-12-29T06:34:31;2.97;;;1.93;;
18973;SDS011;9621;48.690;9.466;2022-12-29T06:36:58;3.67;;;1.40;;
18973;SDS011;9621;48.690;9.466;2022-12-29T06:39:26;1.53;;;1.20;;
18973;SDS011;9621;48.690;9.466;2022-12-29T06:41:54;2.37;;;1.23;;
18973;SDS011;9621;48.690;9.466;2022-12-29T06:44:21;2.33;;;1.30;;
18973;SDS011;9621;48.690;9.466;2022-12-29T06:46:48;3.57;;;1.37;;
18973;SDS011;9621;48.690;9.466;2022-12-29T06:49:16;2.27;;;1.67;;
18973;SDS011;9621;48.690;9.466;2022-12-29T06:51:43;2.43;;;1.10;;
18973;SDS011;9621;48.690;9.466;2022-12-29T06:54:10;1.77;;;1.10;;
18973;SDS011;9621;48.690;9.466;2022-12-29T06:56:37;2.70;;;1.03;;
18973;SDS011;9621;48.690;9.466;2022-12-29T06:59:05;3.67;;;1.30;;
18973;SDS011;9621;48.690;9.466;2022-12-29T07:01:32;3.87;;;1.07;;
18973;SDS011;9621;48.690;9.466;2022-12-29T07:04:00;3.43;;;1.10;;
18973;SDS011;9621;48.690;9.466;2022-12-29T07:06:27;2.60;;;1.03;;
18973;SDS011;9621;48.690;9.466;2022-12-29T07:08:54;3.13;;;1.10;;
18973;SDS011;9621;48.690;9.466;2022-12-29T07:11:22;2.87;;;1.00;;
18973;SDS011;9621;48.690;9.466;2022-12-29T07:13:49;1.43;;;1.00;;
18973;SDS011;9621;48.690;9.466;2022-12-29T07:16:18;1.83;;;1.13;;
18973;SDS011;9621;48.690;9.466;2022-12-29T07:18:45;1.47;;;1.17;;
18973;SDS011;9621;48.690;9.466;2022-12-29T07:21:12;2.13;;;1.27;;
18973;SDS011;9621;48.690;9.466;2022-12-29T07:23:38;1.43;;;1.13;;
18973;SDS011;9621;48.690;9.466;2022-12-29T07:26:06;2.70;;;1.40;;
18973;SDS011;9621;48.690;9.466;2022-12-29T07:28:34;1.60;;;1.20;;
18973;SDS011;9621;48.690;9.466;2022-12-29T07:31:03;2.33;;;1.27;;
18973;SDS011;9621;48.690;9.466;2022-12-29T07:33:32;1.10;;;1.00;;
18973;SDS011;9621;48.690;9.466;2022-12-29T07:35:59;1.70;;;1.23;;
18973;SDS011;9621;48.690;9.466;2022-12-29T07:38:26;4.03;;;1.30;;
18973;SDS011;9621;48.690;9.466;2022-12-29T07:40:56;1.20;;;1.03;;
18973;SDS011;9621;48.690;9.466;2022-12-29T07:43:23;1.93;;;1.00;;
18973;SDS011;9621;48.690;9.466;2022-12-29T07:45:50;3.87;;;1.30;;
18973;SDS011;9621;48.690;9.466;2022-12-29T07:48:17;2.20;;;1.23;;
18973;SDS011;9621;48.690;9.466;2022-12-29T07:50:45;1.73;;;1.20;;
18973;SDS011;9621;48.690;9.466;2022-12-29T07:53:12;4.53;;;1.20;;
18973;SDS011;9621;48.690;9.466;2022-12-29T07:55:39;2.73;;;1.03;;
18973;SDS011;9621;48.690;9.466;2022-12-29T07:58:06;1.23;;;1.10;;
18973;SDS011;9621;48.690;9.466;2022-12-29T08:00:33;1.70;;;1.20;;
18973;SDS011;9621;48.690;9.466;2022-12-29T08:03:00;2.30;;;1.23;;
18973;SDS011;9621;48.690;9.466;2022-12-29T08:05:27;3.13;;;1.27;;
18973;SDS011;9621;48.690;9.466;2022-12-29T08:07:55;1.80;;;1.37;;
18973;SDS011;9621;48.690;9.466;2022-12-29T08:10:23;3.33;;;1.23;;
18973;SDS011;9621;48.690;9.466;2022-12-29T08:12:50;1.10;;;1.00;;
18973;SDS011;9621;48.690;9.466;2022-12-29T08:15:17;1.80;;;1.20;;
18973;SDS011;9621;48.690;9.466;2022-12-29T08:17:44;2.37;;;1.40;;
18973;SDS011;9621;48.690;9.466;2022-12-29T08:20:11;1.90;;;1.17;;
18973;SDS011;9621;48.690;9.466;2022-12-29T08:22:38;9.87;;;2.17;;
18973;SDS011;9621;48.690;9.466;2022-12-29T08:25:08;1.10;;;0.93;;
18973;SDS011;9621;48.690;9.466;2022-12-29T08:27:35;1.53;;;1.00;;
18973;SDS011;9621;48.690;9.466;2022-12-29T08:30:03;1.87;;;1.10;;
18973;SDS011;9621;48.690;9.466;2022-12-29T08:32:30;2.37;;;1.03;;
18973;SDS011;9621;48.690;9.466;2022-12-29T08:34:57;2.20;;;0.83;;
18973;SDS011;9621;48.690;9.466;2022-12-29T08:37:25;4.50;;;1.60;;
18973;SDS011;9621;48.690;9.466;2022-12-29T08:39:52;2.90;;;1.30;;
18973;SDS011;9621;48.690;9.466;2022-12-29T08:42:21;2.80;;;1.20;;
18973;SDS011;9621;48.690;9.466;2022-12-29T08:44:48;1.20;;;0.93;;
18973;SDS011;9621;48.690;9.466;2022-12-29T08:47:15;3.13;;;1.60;;
18973;SDS011;9621;48.690;9.466;2022-12-29T08:49:42;2.83;;;1.40;;
18973;SDS011;9621;48.690;9.466;2022-12-29T08:52:09;4.47;;;1.10;;
18973;SDS011;9621;48.690;9.466;2022-12-29T08:54:36;3.03;;;1.67;;
18973;SDS011;9621;48.690;9.466;2022-12-29T08:57:03;4.57;;;1.73;;
18973;SDS011;9621;48.690;9.466;2022-12-29T08:59:31;3.97;;;2.20;;
18973;SDS011;9621;48.690;9.466;2022-12-29T09:01:58;2.93;;;1.63;;
18973;SDS011;9621;48.690;9.466;2022-12-29T09:04:26;3.63;;;1.30;;
18973;SDS011;9621;48.690;9.466;2022-12-29T09:06:53;2.70;;;1.37;;
18973;SDS011;9621;48.690;9.466;2022-12-29T09:09:20;3.33;;;1.27;;
18973;SDS011;9621;48.690;9.466;2022-12-29T09:11:47;7.17;;;2.00;;
18973;SDS011;9621;48.690;9.466;2022-12-29T09:14:14;3.77;;;1.53;;
18973;SDS011;9621;48.690;9.466;2022-12-29T09:16:43;2.37;;;1.37;;
18973;SDS011;9621;48.690;9.466;2022-12-29T09:19:27;3.23;;;1.30;;
18973;SDS011;9621;48.690;9.466;2022-12-29T09:21:54;1.73;;;1.23;;
18973;SDS011;9621;48.690;9.466;2022-12-29T09:24:21;2.10;;;1.60;;
18973;SDS011;9621;48.690;9.466;2022-12-29T09:26:48;3.80;;;1.63;;
18973;SDS011;9621;48.690;9.466;2022-12-29T09:29:15;2.97;;;1.80;;
18973;SDS011;9621;48.690;9.466;2022-12-29T09:31:44;2.13;;;1.40;;
18973;SDS011;9621;48.690;9.466;2022-12-29T09:34:11;1.87;;;1.53;;
18973;SDS011;9621;48.690;9.466;2022-12-29T09:36:37;3.77;;;1.43;;
18973;SDS011;9621;48.690;9.466;2022-12-29T09:39:04;2.90;;;1.53;;
18973;SDS011;9621;48.690;9.466;2022-12-29T09:41:33;2.50;;;1.40;;
18973;SDS011;9621;48.690;9.466;2022-12-29T09:44:06;2.23;;;1.77;;
18973;SDS011;9621;48.690;9.466;2022-12-29T09:46:41;1.57;;;1.17;;
18973;SDS011;9621;48.690;9.466;2022-12-29T09:49:17;2.33;;;1.10;;
18973;SDS011;9621;48.690;9.466;2022-12-29T09:51:50;3.30;;;1.30;;
18973;SDS011;9621;48.690;9.466;2022-12-29T09:54:23;2.70;;;1.20;;
18973;SDS011;9621;48.690;9.466;2022-12-29T09:56:59;2.23;;;1.00;;
18973;SDS011;9621;48.690;9.466;2022-12-29T09:59:38;0.90;;;0.90;;
18973;SDS011;9621;48.690;9.466;2022-12-29T10:02:12;2.07;;;1.23;;
18973;SDS011;9621;48.690;9.466;2022-12-29T10:04:47;2.53;;;1.30;;
18973;SDS011;9621;48.690;9.466;2022-12-29T10:07:16;2.77;;;1.17;;
18973;SDS011;9621;48.690;9.466;2022-12-29T10:09:53;3.17;;;1.20;;
18973;SDS011;9621;48.690;9.466;2022-12-29T10:12:28;3.90;;;1.07;;
18973;SDS011;9621;48.690;9.466;2022-12-29T10:15:04;1.67;;;1.20;;
18973;SDS011;9621;48.690;9.466;2022-12-29T10:17:43;1.50;;;0.93;;
18973;SDS011;9621;48.690;9.466;2022-12-29T10:20:26;1.43;;;0.90;;
18973;SDS011;9621;48.690;9.466;2022-12-29T10:23:01;2.25;;;1.00;;
18973;SDS011;9621;48.690;9.466;2022-12-29T10:25:40;1.37;;;0.80;;
18973;SDS011;9621;48.690;9.466;2022-12-29T10:28:15;2.50;;;1.00;;
18973;SDS011;9621;48.690;9.466;2022-12-29T10:30:47;2.40;;;1.00;;
18973;SDS011;9621;48.690;9.466;2022-12-29T10:33:17;3.17;;;1.17;;
18973;SDS011;9621;48.690;9.466;2022-12-29T10:35:48;3.20;;;1.20;;
18973;SDS011;9621;48.690;9.466;2022-12-29T10:38:19;1.07;;;0.90;;
18973;SDS011;9621;48.690;9.466;2022-12-29T10:40:53;2.90;;;1.23;;
18973;SDS011;9621;48.690;9.466;2022-12-29T10:43:25;1.50;;;0.90;;
18973;SDS011;9621;48.690;9.466;2022-12-29T10:45:54;2.23;;;1.10;;
18973;SDS011;9621;48.690;9.466;2022-12-29T10:48:30;3.60;;;1.23;;
18973;SDS011;9621;48.690;9.466;2022-12-29T10:50:59;1.57;;;1.20;;
18973;SDS011;9621;48.690;9.466;2022-12-29T10:53:30;2.83;;;1.10;;
18973;SDS011;9621;48.690;9.466;2022-12-29T10:56:04;1.80;;;1.27;;
18973;SDS011;9621;48.690;9.466;2022-12-29T10:58:41;2.42;;;1.08;;
18973;SDS011;9621;48.690;9.466;2022-12-29T11:01:12;3.10;;;1.03;;
18973;SDS011;9621;48.690;9.466;2022-12-29T11:03:53;4.30;;;0.90;;
18973;SDS011;9621;48.690;9.466;2022-12-29T11:06:30;3.37;;;1.17;;
18973;SDS011;9621;48.690;9.466;2022-12-29T11:08:59;2.05;;;1.10;;
18973;SDS011;9621;48.690;9.466;2022-12-29T11:11:32;2.30;;;1.20;;
18973;SDS011;9621;48.690;9.466;2022-12-29T11:14:02;2.83;;;1.20;;
18973;SDS011;9621;48.690;9.466;2022-12-29T11:16:39;1.33;;;1.00;;
18973;SDS011;9621;48.690;9.466;2022-12-29T11:19:14;2.90;;;1.07;;
18973;SDS011;9621;48.690;9.466;2022-12-29T11:21:50;2.35;;;1.35;;
18973;SDS011;9621;48.690;9.466;2022-12-29T11:24:19;1.60;;;1.03;;
18973;SDS011;9621;48.690;9.466;2022-12-29T11:26:49;2.05;;;1.00;;
18973;SDS011;9621;48.690;9.466;2022-12-29T11:29:26;2.42;;;0.90;;
18973;SDS011;9621;48.690;9.466;2022-12-29T11:31:54;2.53;;;1.30;;
18973;SDS011;9621;48.690;9.466;2022-12-29T11:34:26;1.38;;;1.10;;
18973;SDS011;9621;48.690;9.466;2022-12-29T11:36:58;5.53;;;1.20;;
18973;SDS011;9621;48.690;9.466;2022-12-29T11:39:38;4.15;;;1.20;;
18973;SDS011;9621;48.690;9.466;2022-12-29T11:42:13;1.95;;;1.20;;
18973;SDS011;9621;48.690;9.466;2022-12-29T11:44:43;3.20;;;1.00;;
18973;SDS011;9621;48.690;9.466;2022-12-29T11:47:13;2.88;;;1.10;;
18973;SDS011;9621;48.690;9.466;2022-12-29T11:49:52;4.50;;;1.50;;
18973;SDS011;9621;48.690;9.466;2022-12-29T11:52:22;2.30;;;1.40;;
18973;SDS011;9621;48.690;9.466;2022-12-29T11:54:50;2.55;;;1.40;;
18973;SDS011;9621;48.690;9.466;2022-12-29T11:57:19;3.38;;;1.35;;
18973;SDS011;9621;48.690;9.466;2022-12-29T11:59:50;2.45;;;1.48;;
18973;SDS011;9621;48.690;9.466;2022-12-29T12:05:14;2.35;;;1.40;;
18973;SDS011;9621;48.690;9.466;2022-12-29T12:07:50;3.80;;;1.55;;
18973;SDS011;9621;48.690;9.466;2022-12-29T12:10:23;1.75;;;1.20;;
18973;SDS011;9621;48.690;9.466;2022-12-29T12:13:01;2.70;;;1.40;;
18973;SDS011;9621;48.690;9.466;2022-12-29T12:15:35;1.33;;;1.02;;
18973;SDS011;9621;48.690;9.466;2022-12-29T12:18:05;3.22;;;1.48;;
18973;SDS011;9621;48.690;9.466;2022-12-29T12:20:41;3.73;;;1.23;;
18973;SDS011;9621;48.690;9.466;2022-12-29T12:23:14;3.33;;;1.45;;
18973;SDS011;9621;48.690;9.466;2022-12-29T12:25:53;2.70;;;1.17;;
18973;SDS011;9621;48.690;9.466;2022-12-29T12:28:26;3.50;;;1.38;;
18973;SDS011;9621;48.690;9.466;2022-12-29T12:31:00;1.95;;;1.08;;
18973;SDS011;9621;48.690;9.466;2022-12-29T12:33:31;3.08;;;1.10;;
18973;SDS011;9621;48.690;9.466;2022-12-29T12:36:09;3.10;;;1.25;;
18973;SDS011;9621;48.690;9.466;2022-12-29T12:38:50;3.58;;;1.10;;
18973;SDS011;9621;48.690;9.466;2022-12-29T12:41:24;1.50;;;1.30;;
18973;SDS011;9621;48.690;9.466;2022-12-29T12:44:00;2.88;;;1.10;;
18973;SDS011;9621;48.690;9.466;2022-12-29T12:49:41;3.30;;;1.60;;
18973;SDS011;9621;48.690;9.466;2022-12-29T12:52:33;1.73;;;1.10;;
18973;SDS011;9621;48.690;9.466;2022-12-29T12:55:15;4.57;;;1.38;;
18973;SDS011;9621;48.690;9.466;2022-12-29T12:57:57;1.80;;;1.10;;
18973;SDS011;9621;48.690;9.466;2022-12-29T13:00:38;2.83;;;1.17;;
18973;SDS011;9621;48.690;9.466;2022-12-29T13:03:13;2.85;;;1.38;;
18973;SDS011;9621;48.690;9.466;2022-12-29T13:05:57;2.15;;;1.20;;
18973;SDS011;9621;48.690;9.466;2022-12-29T13:11:36;3.58;;;1.10;;
18973;SDS011;9621;48.690;9.466;2022-12-29T13:14:17;1.92;;;1.20;;
18973;SDS011;9621;48.690;9.466;2022-12-29T13:17:00;1.70;;;1.13;;
18973;SDS011;9621;48.690;9.466;2022-12-29T13:19:34;1.67;;;1.17;;
18973;SDS011;9621;48.690;9.466;2022-12-29T13:22:08;3.17;;;1.20;;
18973;SDS011;9621;48.690;9.466;2022-12-29T13:24:47;2.88;;;1.73;;
18973;SDS011;9621;48.690;9.466;2022-12-29T13:27:23;1.70;;;1.25;;
18973;SDS011;9621;48.690;9.466;2022-12-29T13:29:59;5.13;;;1.30;;
18973;SDS011;9621;48.690;9.466;2022-12-29T13:32:43;2.38;;;1.20;;
18973;SDS011;9621;48.690;9.466;2022-12-29T13:35:34;1.43;;;1.03;;
18973;SDS011;9621;48.690;9.466;2022-12-29T13:38:19;4.00;;;1.27;;
18973;SDS011;9621;48.690;9.466;2022-12-29T13:40:55;2.57;;;1.90;;
18973;SDS011;9621;48.690;9.466;2022-12-29T13:43:27;2.77;;;1.57;;
18973;SDS011;9621;48.690;9.466;2022-12-29T13:45:58;2.03;;;1.23;;
18973;SDS011;9621;48.690;9.466;2022-12-29T13:48:33;2.78;;;1.35;;
18973;SDS011;9621;48.690;9.466;2022-12-29T13:51:08;4.40;;;1.33;;
18973;SDS011;9621;48.690;9.466;2022-12-29T13:53:37;4.53;;;2.30;;
18973;SDS011;9621;48.690;9.466;2022-12-29T13:56:19;4.05;;;1.60;;
18973;SDS011;9621;48.690;9.466;2022-12-29T13:58:54;2.70;;;1.80;;
18973;SDS011;9621;48.690;9.466;2022-12-29T14:01:27;3.83;;;1.90;;
18973;SDS011;9621;48.690;9.466;2022-12-29T14:03:57;3.65;;;1.80;;
18973;SDS011;9621;48.690;9.466;2022-12-29T14:06:25;2.80;;;1.80;;
18973;SDS011;9621;48.690;9.466;2022-12-29T14:08:55;5.33;;;3.03;;
18973;SDS011;9621;48.690;9.466;2022-12-29T14:11:30;3.93;;;1.50;;
18973;SDS011;9621;48.690;9.466;2022-12-29T14:13:59;2.22;;;1.50;;
18973;SDS011;9621;48.690;9.466;2022-12-29T14:16:37;3.30;;;1.60;;
18973;SDS011;9621;48.690;9.466;2022-12-29T14:19:11;1.83;;;1.30;;
18973;SDS011;9621;48.690;9.466;2022-12-29T14:21:49;2.90;;;1.40;;
18973;SDS011;9621;48.690;9.466;2022-12-29T14:33:17;2.43;;;1.43;;
18973;SDS011;9621;48.690;9.466;2022-12-29T14:35:45;1.63;;;1.30;;
18973;SDS011;9621;48.690;9.466;2022-12-29T14:38:27;1.40;;;1.10;;
18973;SDS011;9621;48.690;9.466;2022-12-29T14:41:15;1.73;;;1.40;;
18973;SDS011;9621;48.690;9.466;2022-12-29T14:43:56;2.20;;;1.35;;
18973;SDS011;9621;48.690;9.466;2022-12-29T14:46:25;1.95;;;1.40;;
18973;SDS011;9621;48.690;9.466;2022-12-29T14:49:08;1.67;;;1.17;;
18973;SDS011;9621;48.690;9.466;2022-12-29T14:51:43;4.83;;;1.37;;
18973;SDS011;9621;48.690;9.466;2022-12-29T14:57:19;2.23;;;1.30;;
18973;SDS011;9621;48.690;9.466;2022-12-29T15:00:12;2.23;;;1.40;;
18973;SDS011;9621;48.690;9.466;2022-12-29T15:02:45;1.90;;;1.33;;
18973;SDS011;9621;48.690;9.466;2022-12-29T15:05:29;2.07;;;1.53;;
18973;SDS011;9621;48.690;9.466;2022-12-29T15:08:00;2.53;;;1.30;;
18973;SDS011;9621;48.690;9.466;2022-12-29T15:10:32;3.97;;;1.47;;
18973;SDS011;9621;48.690;9.466;2022-12-29T15:13:03;2.00;;;1.20;;
18973;SDS011;9621;48.690;9.466;2022-12-29T15:15:37;3.17;;;1.30;;
18973;SDS011;9621;48.690;9.466;2022-12-29T15:18:15;3.73;;;1.63;;
18973;SDS011;9621;48.690;9.466;2022-12-29T15:20:50;3.90;;;1.53;;
18973;SDS011;9621;48.690;9.466;2022-12-29T15:23:19;3.93;;;1.63;;
18973;SDS011;9621;48.690;9.466;2022-12-29T15:25:47;2.40;;;1.67;;
18973;SDS011;9621;48.690;9.466;2022-12-29T15:28:16;2.33;;;1.40;;
18973;SDS011;9621;48.690;9.466;2022-12-29T15:30:55;2.03;;;1.63;;
18973;SDS011;9621;48.690;9.466;2022-12-29T15:33:24;2.37;;;1.60;;
18973;SDS011;9621;48.690;9.466;2022-12-29T15:35:55;2.40;;;1.77;;
18973;SDS011;9621;48.690;9.466;2022-12-29T15:38:24;6.40;;;2.00;;
18973;SDS011;9621;48.690;9.466;2022-12-29T15:40:53;4.57;;;1.73;;
18973;SDS011;9621;48.690;9.466;2022-12-29T15:43:29;2.83;;;1.77;;
18973;SDS011;9621;48.690;9.466;2022-12-29T15:46:09;2.80;;;1.50;;
18973;SDS011;9621;48.690;9.466;2022-12-29T15:48:37;2.40;;;1.67;;
18973;SDS011;9621;48.690;9.466;2022-12-29T15:51:09;2.57;;;1.70;;